sensor_id;sensor_type;location;lat;lon;timestamp;temperature;humidity
43671;DHT22;29267;50.906;7.248;2022-09-09T00:09:46;17.20;99.90
43671;DHT22;29267;50.906;7.248;2022-09-09T00:12:34;17.30;99.90
43671;DHT22;29267;50.906;7.248;2022-09-09T00:15:03;17.30;99.90
43671;DHT22;29267;50.906;7.248;2022-09-09T00:20:25;17.40;99.90
43671;DHT22;29267;50.906;7.248;2022-09-09T00:23:32;17.40;99.90
43671;DHT22;29267;50.906;7.248;2022-09-09T00:26:36;17.50;99.90
43671;DHT22;29267;50.906;7.248;2022-09-09T00:29:22;17.60;99.90
43671;DHT22;29267;50.906;7.248;2022-09-09T00:31:57;17.70;99.90
43671;DHT22;29267;50.906;7.248;2022-09-09T00:34:27;17.60;99.90
43671;DHT22;29267;50.906;7.248;2022-09-09T00:36:55;17.70;99.90
43671;DHT22;29267;50.906;7.248;2022-09-09T00:39:34;17.70;99.90
43671;DHT22;29267;50.906;7.248;2022-09-09T00:42:18;17.60;99.90
43671;DHT22;29267;50.906;7.248;2022-09-09T00:45:02;17.40;99.90
43671;DHT22;29267;50.906;7.248;2022-09-09T00:47:51;17.50;99.90
43671;DHT22;29267;50.906;7.248;2022-09-09T00:50:35;17.40;99.90
43671;DHT22;29267;50.906;7.248;2022-09-09T00:55:48;17.40;99.90
43671;DHT22;29267;50.906;7.248;2022-09-09T00:58:14;17.40;99.90
43671;DHT22;29267;50.906;7.248;2022-09-09T01:22:18;17.10;99.90
43671;DHT22;29267;50.906;7.248;2022-09-09T01:27:40;17.10;99.90
43671;DHT22;29267;50.906;7.248;2022-09-09T01:30:12;17.20;99.90
43671;DHT22;29267;50.906;7.248;2022-09-09T01:32:55;17.10;99.90
43671;DHT22;29267;50.906;7.248;2022-09-09T01:35:36;17.00;99.90
43671;DHT22;29267;50.906;7.248;2022-09-09T01:38:03;16.90;99.90
43671;DHT22;29267;50.906;7.248;2022-09-09T01:40:29;16.90;99.90
43671;DHT22;29267;50.906;7.248;2022-09-09T01:43:05;16.90;99.90
43671;DHT22;29267;50.906;7.248;2022-09-09T01:45:33;16.80;99.90
43671;DHT22;29267;50.906;7.248;2022-09-09T01:48:00;16.80;99.90
43671;DHT22;29267;50.906;7.248;2022-09-09T01:50:34;16.90;99.90
43671;DHT22;29267;50.906;7.248;2022-09-09T01:53:02;16.90;99.90
43671;DHT22;29267;50.906;7.248;2022-09-09T01:55:55;16.80;99.90
43671;DHT22;29267;50.906;7.248;2022-09-09T02:04:08;16.90;99.90
43671;DHT22;29267;50.906;7.248;2022-09-09T02:06:40;17.10;99.90
43671;DHT22;29267;50.906;7.248;2022-09-09T02:09:07;16.90;99.90
43671;DHT22;29267;50.906;7.248;2022-09-09T02:11:37;16.90;99.90
43671;DHT22;29267;50.906;7.248;2022-09-09T02:14:13;17.00;99.90
43671;DHT22;29267;50.906;7.248;2022-09-09T02:16:47;17.00;99.90
43671;DHT22;29267;50.906;7.248;2022-09-09T02:19:20;16.90;99.90
43671;DHT22;29267;50.906;7.248;2022-09-09T02:21:55;16.90;99.90
43671;DHT22;29267;50.906;7.248;2022-09-09T02:24:23;17.00;99.90
43671;DHT22;29267;50.906;7.248;2022-09-09T02:26:56;17.00;99.90
43671;DHT22;29267;50.906;7.248;2022-09-09T02:29:41;17.00;99.90
43671;DHT22;29267;50.906;7.248;2022-09-09T02:32:17;17.00;99.90
43671;DHT22;29267;50.906;7.248;2022-09-09T02:35:04;17.00;99.90
43671;DHT22;29267;50.906;7.248;2022-09-09T02:37:44;17.00;99.90
43671;DHT22;29267;50.906;7.248;2022-09-09T02:40:14;16.90;99.90
43671;DHT22;29267;50.906;7.248;2022-09-09T02:42:43;16.90;99.90
43671;DHT22;29267;50.906;7.248;2022-09-09T02:45:12;16.80;99.90
43671;DHT22;29267;50.906;7.248;2022-09-09T02:50:25;16.80;99.90
43671;DHT22;29267;50.906;7.248;2022-09-09T02:53:18;16.90;99.90
43671;DHT22;29267;50.906;7.248;2022-09-09T02:56:25;16.80;99.90
43671;DHT22;29267;50.906;7.248;2022-09-09T02:59:20;16.90;99.90
43671;DHT22;29267;50.906;7.248;2022-09-09T03:01:46;16.90;99.90
43671;DHT22;29267;50.906;7.248;2022-09-09T03:04:13;16.90;99.90
43671;DHT22;29267;50.906;7.248;2022-09-09T03:06:39;16.90;99.90
43671;DHT22;29267;50.906;7.248;2022-09-09T03:09:05;17.00;99.90
43671;DHT22;29267;50.906;7.248;2022-09-09T03:11:31;17.00;99.90
43671;DHT22;29267;50.906;7.248;2022-09-09T03:13:59;17.00;99.90
43671;DHT22;29267;50.906;7.248;2022-09-09T03:17:20;16.90;99.90
43671;DHT22;29267;50.906;7.248;2022-09-09T03:20:10;16.80;99.90
43671;DHT22;29267;50.906;7.248;2022-09-09T03:22:43;16.80;99.90
43671;DHT22;29267;50.906;7.248;2022-09-09T03:25:29;16.90;99.90
43671;DHT22;29267;50.906;7.248;2022-09-09T03:28:45;16.90;99.90
43671;DHT22;29267;50.906;7.248;2022-09-09T03:31:35;16.80;99.90
43671;DHT22;29267;50.906;7.248;2022-09-09T03:34:22;16.90;99.90
43671;DHT22;29267;50.906;7.248;2022-09-09T03:36:50;17.00;99.90
43671;DHT22;29267;50.906;7.248;2022-09-09T03:39:16;17.10;99.90
43671;DHT22;29267;50.906;7.248;2022-09-09T03:41:42;17.10;99.90
43671;DHT22;29267;50.906;7.248;2022-09-09T03:44:10;17.10;99.90
43671;DHT22;29267;50.906;7.248;2022-09-09T03:46:40;17.10;99.90
43671;DHT22;29267;50.906;7.248;2022-09-09T03:49:09;17.20;99.90
43671;DHT22;29267;50.906;7.248;2022-09-09T03:51:40;17.20;99.90
43671;DHT22;29267;50.906;7.248;2022-09-09T03:54:11;17.20;99.90
43671;DHT22;29267;50.906;7.248;2022-09-09T03:56:58;17.10;99.90
43671;DHT22;29267;50.906;7.248;2022-09-09T03:59:26;17.10;99.90
43671;DHT22;29267;50.906;7.248;2022-09-09T04:01:53;17.10;99.90
43671;DHT22;29267;50.906;7.248;2022-09-09T04:04:20;17.10;99.90
43671;DHT22;29267;50.906;7.248;2022-09-09T04:06:46;17.10;99.90
43671;DHT22;29267;50.906;7.248;2022-09-09T04:09:15;17.20;99.90
43671;DHT22;29267;50.906;7.248;2022-09-09T04:11:41;17.20;99.90
43671;DHT22;29267;50.906;7.248;2022-09-09T04:14:07;17.00;99.90
43671;DHT22;29267;50.906;7.248;2022-09-09T04:16:34;17.00;99.90
43671;DHT22;29267;50.906;7.248;2022-09-09T04:19:03;17.00;99.90
43671;DHT22;29267;50.906;7.248;2022-09-09T04:21:30;17.00;99.90
43671;DHT22;29267;50.906;7.248;2022-09-09T04:23:56;16.90;99.90
43671;DHT22;29267;50.906;7.248;2022-09-09T04:26:22;17.00;99.90
43671;DHT22;29267;50.906;7.248;2022-09-09T04:28:48;17.00;99.90
43671;DHT22;29267;50.906;7.248;2022-09-09T04:31:17;17.10;99.90
43671;DHT22;29267;50.906;7.248;2022-09-09T04:33:50;17.30;99.90
43671;DHT22;29267;50.906;7.248;2022-09-09T04:36:16;17.20;99.90
43671;DHT22;29267;50.906;7.248;2022-09-09T04:38:43;17.20;99.90
43671;DHT22;29267;50.906;7.248;2022-09-09T04:41:10;17.30;99.90
43671;DHT22;29267;50.906;7.248;2022-09-09T04:43:37;17.30;99.90
43671;DHT22;29267;50.906;7.248;2022-09-09T04:46:09;17.20;99.90
43671;DHT22;29267;50.906;7.248;2022-09-09T04:48:43;17.20;99.90
43671;DHT22;29267;50.906;7.248;2022-09-09T04:51:29;17.10;99.90
43671;DHT22;29267;50.906;7.248;2022-09-09T04:54:24;17.10;99.90
43671;DHT22;29267;50.906;7.248;2022-09-09T04:56:50;17.10;99.90
43671;DHT22;29267;50.906;7.248;2022-09-09T04:59:16;17.00;99.90
43671;DHT22;29267;50.906;7.248;2022-09-09T05:01:42;16.80;99.90
43671;DHT22;29267;50.906;7.248;2022-09-09T05:04:08;17.00;99.90
43671;DHT22;29267;50.906;7.248;2022-09-09T05:06:34;17.00;99.90
43671;DHT22;29267;50.906;7.248;2022-09-09T05:09:02;17.10;99.90
43671;DHT22;29267;50.906;7.248;2022-09-09T05:11:32;17.00;99.90
43671;DHT22;29267;50.906;7.248;2022-09-09T05:14:02;16.90;99.90
43671;DHT22;29267;50.906;7.248;2022-09-09T05:16:29;17.00;99.90
43671;DHT22;29267;50.906;7.248;2022-09-09T05:18:55;17.00;99.90
43671;DHT22;29267;50.906;7.248;2022-09-09T05:21:23;16.80;99.90
43671;DHT22;29267;50.906;7.248;2022-09-09T05:23:52;16.80;99.90
43671;DHT22;29267;50.906;7.248;2022-09-09T05:26:20;16.80;99.90
43671;DHT22;29267;50.906;7.248;2022-09-09T05:28:46;16.80;99.90
43671;DHT22;29267;50.906;7.248;2022-09-09T05:31:14;16.90;99.90
43671;DHT22;29267;50.906;7.248;2022-09-09T05:33:41;16.80;99.90
43671;DHT22;29267;50.906;7.248;2022-09-09T05:36:10;16.80;99.90
43671;DHT22;29267;50.906;7.248;2022-09-09T05:38:38;16.80;99.90
43671;DHT22;29267;50.906;7.248;2022-09-09T05:41:05;16.80;99.90
43671;DHT22;29267;50.906;7.248;2022-09-09T05:43:31;16.70;99.90
43671;DHT22;29267;50.906;7.248;2022-09-09T05:46:03;16.70;99.90
43671;DHT22;29267;50.906;7.248;2022-09-09T05:48:36;16.70;99.90
43671;DHT22;29267;50.906;7.248;2022-09-09T05:51:03;16.60;99.90
43671;DHT22;29267;50.906;7.248;2022-09-09T05:53:30;16.70;99.90
43671;DHT22;29267;50.906;7.248;2022-09-09T05:56:05;16.70;99.90
43671;DHT22;29267;50.906;7.248;2022-09-09T05:58:32;16.70;99.90
43671;DHT22;29267;50.906;7.248;2022-09-09T06:01:27;16.70;99.90
43671;DHT22;29267;50.906;7.248;2022-09-09T06:03:54;16.80;99.90
43671;DHT22;29267;50.906;7.248;2022-09-09T06:06:25;16.80;99.90
43671;DHT22;29267;50.906;7.248;2022-09-09T06:08:53;16.70;99.90
43671;DHT22;29267;50.906;7.248;2022-09-09T06:11:24;16.70;99.90
43671;DHT22;29267;50.906;7.248;2022-09-09T06:13:50;16.70;99.90
43671;DHT22;29267;50.906;7.248;2022-09-09T06:16:21;16.80;99.90
43671;DHT22;29267;50.906;7.248;2022-09-09T06:18:49;16.70;99.90
43671;DHT22;29267;50.906;7.248;2022-09-09T06:21:29;16.70;99.90
43671;DHT22;29267;50.906;7.248;2022-09-09T06:23:56;16.70;99.90
43671;DHT22;29267;50.906;7.248;2022-09-09T06:26:40;16.90;99.90
43671;DHT22;29267;50.906;7.248;2022-09-09T06:29:06;17.00;99.90
43671;DHT22;29267;50.906;7.248;2022-09-09T06:31:36;16.90;99.90
43671;DHT22;29267;50.906;7.248;2022-09-09T06:34:05;17.00;99.90
43671;DHT22;29267;50.906;7.248;2022-09-09T06:36:32;16.90;99.90
43671;DHT22;29267;50.906;7.248;2022-09-09T06:38:59;16.90;99.90
43671;DHT22;29267;50.906;7.248;2022-09-09T06:41:27;16.90;99.90
43671;DHT22;29267;50.906;7.248;2022-09-09T06:43:54;17.00;99.90
43671;DHT22;29267;50.906;7.248;2022-09-09T06:46:28;17.00;99.90
43671;DHT22;29267;50.906;7.248;2022-09-09T06:48:55;17.10;99.90
43671;DHT22;29267;50.906;7.248;2022-09-09T06:51:24;17.20;99.90
43671;DHT22;29267;50.906;7.248;2022-09-09T06:53:53;17.30;99.90
43671;DHT22;29267;50.906;7.248;2022-09-09T06:56:40;17.20;99.90
43671;DHT22;29267;50.906;7.248;2022-09-09T06:59:10;17.20;99.90
43671;DHT22;29267;50.906;7.248;2022-09-09T07:01:42;17.20;99.90
43671;DHT22;29267;50.906;7.248;2022-09-09T07:04:14;17.30;99.90
43671;DHT22;29267;50.906;7.248;2022-09-09T07:06:42;17.40;99.90
43671;DHT22;29267;50.906;7.248;2022-09-09T07:09:13;17.40;99.90
43671;DHT22;29267;50.906;7.248;2022-09-09T07:11:58;17.40;99.90
43671;DHT22;29267;50.906;7.248;2022-09-09T07:14:25;17.40;99.90
43671;DHT22;29267;50.906;7.248;2022-09-09T07:16:53;17.50;99.90
43671;DHT22;29267;50.906;7.248;2022-09-09T07:19:25;17.60;99.90
43671;DHT22;29267;50.906;7.248;2022-09-09T07:21:51;17.70;99.90
43671;DHT22;29267;50.906;7.248;2022-09-09T07:24:17;17.60;99.90
43671;DHT22;29267;50.906;7.248;2022-09-09T07:26:43;17.70;99.90
43671;DHT22;29267;50.906;7.248;2022-09-09T07:29:11;17.80;99.90
43671;DHT22;29267;50.906;7.248;2022-09-09T07:31:39;17.80;99.90
43671;DHT22;29267;50.906;7.248;2022-09-09T07:34:05;17.90;99.90
43671;DHT22;29267;50.906;7.248;2022-09-09T07:36:33;17.90;99.90
43671;DHT22;29267;50.906;7.248;2022-09-09T07:39:01;18.00;99.90
43671;DHT22;29267;50.906;7.248;2022-09-09T07:41:29;18.10;99.90
43671;DHT22;29267;50.906;7.248;2022-09-09T07:43:56;18.10;99.90
43671;DHT22;29267;50.906;7.248;2022-09-09T07:46:24;18.20;99.90
43671;DHT22;29267;50.906;7.248;2022-09-09T07:48:55;18.20;99.90
43671;DHT22;29267;50.906;7.248;2022-09-09T07:51:26;18.30;99.90
43671;DHT22;29267;50.906;7.248;2022-09-09T07:53:55;18.30;99.90
43671;DHT22;29267;50.906;7.248;2022-09-09T07:56:23;18.30;99.90
43671;DHT22;29267;50.906;7.248;2022-09-09T07:58:51;18.40;99.90
43671;DHT22;29267;50.906;7.248;2022-09-09T08:01:23;18.40;99.90
43671;DHT22;29267;50.906;7.248;2022-09-09T08:04:01;18.40;99.90
43671;DHT22;29267;50.906;7.248;2022-09-09T08:06:29;18.40;99.90
43671;DHT22;29267;50.906;7.248;2022-09-09T08:08:55;18.50;99.60
43671;DHT22;29267;50.906;7.248;2022-09-09T08:11:22;18.40;99.20
43671;DHT22;29267;50.906;7.248;2022-09-09T08:13:49;18.40;99.50
43671;DHT22;29267;50.906;7.248;2022-09-09T08:16:26;18.30;99.10
43671;DHT22;29267;50.906;7.248;2022-09-09T08:18:53;18.30;99.20
43671;DHT22;29267;50.906;7.248;2022-09-09T08:21:22;18.30;99.80
43671;DHT22;29267;50.906;7.248;2022-09-09T08:23:50;18.20;99.50
43671;DHT22;29267;50.906;7.248;2022-09-09T08:26:31;18.10;99.40
43671;DHT22;29267;50.906;7.248;2022-09-09T08:28:59;18.10;99.30
43671;DHT22;29267;50.906;7.248;2022-09-09T08:31:26;18.10;98.80
43671;DHT22;29267;50.906;7.248;2022-09-09T08:33:54;18.10;98.60
43671;DHT22;29267;50.906;7.248;2022-09-09T08:36:22;18.10;98.70
43671;DHT22;29267;50.906;7.248;2022-09-09T08:38:50;18.10;98.80
43671;DHT22;29267;50.906;7.248;2022-09-09T08:52:27;18.30;98.60
43671;DHT22;29267;50.906;7.248;2022-09-09T08:55:02;18.30;98.60
43671;DHT22;29267;50.906;7.248;2022-09-09T08:57:30;18.40;98.90
43671;DHT22;29267;50.906;7.248;2022-09-09T08:59:58;18.40;98.60
43671;DHT22;29267;50.906;7.248;2022-09-09T09:02:42;18.50;97.70
43671;DHT22;29267;50.906;7.248;2022-09-09T09:05:26;18.50;97.50
43671;DHT22;29267;50.906;7.248;2022-09-09T09:08:17;18.50;95.90
43671;DHT22;29267;50.906;7.248;2022-09-09T09:10:51;18.50;95.60
43671;DHT22;29267;50.906;7.248;2022-09-09T09:18:58;18.50;96.30
43671;DHT22;29267;50.906;7.248;2022-09-09T09:23:59;18.60;96.50
43671;DHT22;29267;50.906;7.248;2022-09-09T09:26:33;18.60;97.30
43671;DHT22;29267;50.906;7.248;2022-09-09T09:29:12;18.50;97.10
43671;DHT22;29267;50.906;7.248;2022-09-09T09:31:51;18.60;97.90
43671;DHT22;29267;50.906;7.248;2022-09-09T09:34:18;18.60;96.90
43671;DHT22;29267;50.906;7.248;2022-09-09T09:39:27;19.00;96.60
43671;DHT22;29267;50.906;7.248;2022-09-09T09:41:53;19.10;95.60
43671;DHT22;29267;50.906;7.248;2022-09-09T09:44:26;19.20;95.30
43671;DHT22;29267;50.906;7.248;2022-09-09T09:47:04;19.10;95.30
43671;DHT22;29267;50.906;7.248;2022-09-09T09:49:33;19.00;94.90
43671;DHT22;29267;50.906;7.248;2022-09-09T09:52:03;19.00;95.20
43671;DHT22;29267;50.906;7.248;2022-09-09T09:54:31;18.90;95.20
43671;DHT22;29267;50.906;7.248;2022-09-09T09:57:12;18.80;94.50
43671;DHT22;29267;50.906;7.248;2022-09-09T09:59:38;18.80;94.60
43671;DHT22;29267;50.906;7.248;2022-09-09T10:02:41;18.80;94.30
43671;DHT22;29267;50.906;7.248;2022-09-09T10:05:20;18.70;94.70
43671;DHT22;29267;50.906;7.248;2022-09-09T10:07:46;18.70;94.20
43671;DHT22;29267;50.906;7.248;2022-09-09T10:10:23;18.80;94.70
43671;DHT22;29267;50.906;7.248;2022-09-09T10:13:04;18.80;94.80
43671;DHT22;29267;50.906;7.248;2022-09-09T10:15:44;18.90;94.70
43671;DHT22;29267;50.906;7.248;2022-09-09T10:18:35;18.90;94.40
43671;DHT22;29267;50.906;7.248;2022-09-09T10:27:22;19.10;93.90
43671;DHT22;29267;50.906;7.248;2022-09-09T10:30:19;19.40;94.10
43671;DHT22;29267;50.906;7.248;2022-09-09T10:33:30;19.70;93.60
43671;DHT22;29267;50.906;7.248;2022-09-09T10:38:48;19.80;93.30
43671;DHT22;29267;50.906;7.248;2022-09-09T10:44:14;19.60;93.60
43671;DHT22;29267;50.906;7.248;2022-09-09T11:00:19;19.30;93.00
43671;DHT22;29267;50.906;7.248;2022-09-09T11:02:52;19.20;93.30
43671;DHT22;29267;50.906;7.248;2022-09-09T11:08:04;19.20;92.20
43671;DHT22;29267;50.906;7.248;2022-09-09T11:10:45;19.30;92.60
43671;DHT22;29267;50.906;7.248;2022-09-09T11:15:50;19.40;93.30
43671;DHT22;29267;50.906;7.248;2022-09-09T11:18:22;19.40;93.30
43671;DHT22;29267;50.906;7.248;2022-09-09T11:20:51;19.50;92.50
43671;DHT22;29267;50.906;7.248;2022-09-09T11:23:27;19.60;92.70
43671;DHT22;29267;50.906;7.248;2022-09-09T11:26:00;19.80;93.10
43671;DHT22;29267;50.906;7.248;2022-09-09T11:37:23;20.10;92.70
43671;DHT22;29267;50.906;7.248;2022-09-09T11:40:00;20.10;91.90
43671;DHT22;29267;50.906;7.248;2022-09-09T11:42:30;20.20;93.00
43671;DHT22;29267;50.906;7.248;2022-09-09T11:44:55;20.20;92.60
43671;DHT22;29267;50.906;7.248;2022-09-09T11:47:30;20.10;92.60
43671;DHT22;29267;50.906;7.248;2022-09-09T11:52:48;20.10;91.70
43671;DHT22;29267;50.906;7.248;2022-09-09T11:58:24;19.90;92.20
43671;DHT22;29267;50.906;7.248;2022-09-09T12:00:51;19.90;92.40
43671;DHT22;29267;50.906;7.248;2022-09-09T12:03:50;19.90;92.40
43671;DHT22;29267;50.906;7.248;2022-09-09T12:07:03;19.90;92.10
43671;DHT22;29267;50.906;7.248;2022-09-09T12:09:45;19.80;91.60
43671;DHT22;29267;50.906;7.248;2022-09-09T12:14:43;19.80;91.40
43671;DHT22;29267;50.906;7.248;2022-09-09T12:17:23;19.80;91.40
43671;DHT22;29267;50.906;7.248;2022-09-09T12:20:21;19.80;91.70
43671;DHT22;29267;50.906;7.248;2022-09-09T12:22:55;19.80;91.70
43671;DHT22;29267;50.906;7.248;2022-09-09T12:28:27;19.90;92.00
43671;DHT22;29267;50.906;7.248;2022-09-09T12:31:44;19.90;92.00
43671;DHT22;29267;50.906;7.248;2022-09-09T12:36:41;19.90;91.80
43671;DHT22;29267;50.906;7.248;2022-09-09T12:39:32;19.90;92.30
43671;DHT22;29267;50.906;7.248;2022-09-09T12:41:59;19.90;92.70
43671;DHT22;29267;50.906;7.248;2022-09-09T12:44:26;19.90;92.70
43671;DHT22;29267;50.906;7.248;2022-09-09T12:46:56;19.90;91.60
43671;DHT22;29267;50.906;7.248;2022-09-09T12:49:34;19.90;91.60
43671;DHT22;29267;50.906;7.248;2022-09-09T12:52:25;19.90;91.60
43671;DHT22;29267;50.906;7.248;2022-09-09T12:54:52;19.90;91.70
43671;DHT22;29267;50.906;7.248;2022-09-09T12:57:20;19.80;91.50
43671;DHT22;29267;50.906;7.248;2022-09-09T12:59:48;19.80;91.30
43671;DHT22;29267;50.906;7.248;2022-09-09T13:02:26;19.70;91.40
43671;DHT22;29267;50.906;7.248;2022-09-09T13:04:53;19.70;91.80
43671;DHT22;29267;50.906;7.248;2022-09-09T13:07:21;19.70;91.10
43671;DHT22;29267;50.906;7.248;2022-09-09T13:09:48;19.70;91.20
43671;DHT22;29267;50.906;7.248;2022-09-09T13:12:18;19.70;91.50
43671;DHT22;29267;50.906;7.248;2022-09-09T13:14:47;19.70;91.70
43671;DHT22;29267;50.906;7.248;2022-09-09T13:17:25;19.80;91.50
43671;DHT22;29267;50.906;7.248;2022-09-09T13:19:52;19.90;91.30
43671;DHT22;29267;50.906;7.248;2022-09-09T13:22:39;19.90;90.70
43671;DHT22;29267;50.906;7.248;2022-09-09T13:27:38;19.90;91.10
43671;DHT22;29267;50.906;7.248;2022-09-09T13:30:24;19.80;90.90
43671;DHT22;29267;50.906;7.248;2022-09-09T13:38:24;19.50;94.70
43671;DHT22;29267;50.906;7.248;2022-09-09T13:41:07;19.40;95.20
43671;DHT22;29267;50.906;7.248;2022-09-09T13:43:38;19.10;96.90
43671;DHT22;29267;50.906;7.248;2022-09-09T13:46:38;18.90;98.60
43671;DHT22;29267;50.906;7.248;2022-09-09T13:51:44;18.90;99.70
43671;DHT22;29267;50.906;7.248;2022-09-09T13:54:13;19.00;99.90
43671;DHT22;29267;50.906;7.248;2022-09-09T13:56:40;19.10;99.90
43671;DHT22;29267;50.906;7.248;2022-09-09T13:59:14;19.20;99.90
43671;DHT22;29267;50.906;7.248;2022-09-09T14:01:40;19.30;99.90
43671;DHT22;29267;50.906;7.248;2022-09-09T14:04:07;19.30;98.60
43671;DHT22;29267;50.906;7.248;2022-09-09T14:06:35;19.40;98.60
43671;DHT22;29267;50.906;7.248;2022-09-09T14:09:11;19.40;99.00
43671;DHT22;29267;50.906;7.248;2022-09-09T14:11:38;19.30;98.60
43671;DHT22;29267;50.906;7.248;2022-09-09T14:14:03;19.20;97.90
43671;DHT22;29267;50.906;7.248;2022-09-09T14:16:30;19.20;99.00
43671;DHT22;29267;50.906;7.248;2022-09-09T14:18:56;19.30;99.30
43671;DHT22;29267;50.906;7.248;2022-09-09T14:21:23;19.30;99.80
43671;DHT22;29267;50.906;7.248;2022-09-09T14:23:48;19.30;98.20
43671;DHT22;29267;50.906;7.248;2022-09-09T14:26:14;19.30;98.30
43671;DHT22;29267;50.906;7.248;2022-09-09T14:28:40;19.30;99.20
43671;DHT22;29267;50.906;7.248;2022-09-09T14:31:06;19.30;98.40
43671;DHT22;29267;50.906;7.248;2022-09-09T14:33:33;19.40;97.80
43671;DHT22;29267;50.906;7.248;2022-09-09T14:36:02;19.40;97.30
43671;DHT22;29267;50.906;7.248;2022-09-09T14:38:35;19.40;98.40
43671;DHT22;29267;50.906;7.248;2022-09-09T14:41:06;19.50;97.30
43671;DHT22;29267;50.906;7.248;2022-09-09T14:43:32;19.40;97.00
43671;DHT22;29267;50.906;7.248;2022-09-09T14:46:07;19.40;96.50
43671;DHT22;29267;50.906;7.248;2022-09-09T14:48:34;19.40;96.90
43671;DHT22;29267;50.906;7.248;2022-09-09T14:51:16;19.40;97.00
43671;DHT22;29267;50.906;7.248;2022-09-09T14:53:43;19.50;96.80
43671;DHT22;29267;50.906;7.248;2022-09-09T14:56:18;19.50;97.40
43671;DHT22;29267;50.906;7.248;2022-09-09T14:58:45;19.50;97.20
43671;DHT22;29267;50.906;7.248;2022-09-09T15:01:14;19.60;96.70
43671;DHT22;29267;50.906;7.248;2022-09-09T15:03:41;19.50;97.10
43671;DHT22;29267;50.906;7.248;2022-09-09T15:06:12;19.50;96.70
43671;DHT22;29267;50.906;7.248;2022-09-09T15:08:40;19.60;97.00
43671;DHT22;29267;50.906;7.248;2022-09-09T15:11:07;19.50;96.70
43671;DHT22;29267;50.906;7.248;2022-09-09T15:13:37;19.50;97.00
43671;DHT22;29267;50.906;7.248;2022-09-09T15:16:14;19.50;97.60
43671;DHT22;29267;50.906;7.248;2022-09-09T15:18:41;19.50;97.90
43671;DHT22;29267;50.906;7.248;2022-09-09T15:21:18;19.50;97.40
43671;DHT22;29267;50.906;7.248;2022-09-09T15:23:48;19.40;97.80
43671;DHT22;29267;50.906;7.248;2022-09-09T15:26:14;19.00;99.50
43671;DHT22;29267;50.906;7.248;2022-09-09T15:28:41;18.90;99.90
43671;DHT22;29267;50.906;7.248;2022-09-09T15:31:30;18.60;99.90
43671;DHT22;29267;50.906;7.248;2022-09-09T15:33:58;18.40;99.90
43671;DHT22;29267;50.906;7.248;2022-09-09T15:36:28;18.10;99.90
43671;DHT22;29267;50.906;7.248;2022-09-09T15:38:54;17.30;99.90
43671;DHT22;29267;50.906;7.248;2022-09-09T15:41:21;16.90;99.90
43671;DHT22;29267;50.906;7.248;2022-09-09T15:43:49;16.90;99.90
43671;DHT22;29267;50.906;7.248;2022-09-09T15:46:32;17.00;99.90
43671;DHT22;29267;50.906;7.248;2022-09-09T15:51:28;17.00;99.90
43671;DHT22;29267;50.906;7.248;2022-09-09T15:53:55;17.20;99.90
43671;DHT22;29267;50.906;7.248;2022-09-09T15:56:22;17.00;99.90
43671;DHT22;29267;50.906;7.248;2022-09-09T15:58:54;17.00;99.90
43671;DHT22;29267;50.906;7.248;2022-09-09T16:01:23;16.90;99.90
43671;DHT22;29267;50.906;7.248;2022-09-09T16:03:50;16.70;99.90
43671;DHT22;29267;50.906;7.248;2022-09-09T16:06:24;16.80;99.90
43671;DHT22;29267;50.906;7.248;2022-09-09T16:08:51;16.80;99.90
43671;DHT22;29267;50.906;7.248;2022-09-09T16:11:23;16.90;99.90
43671;DHT22;29267;50.906;7.248;2022-09-09T16:13:57;16.90;99.90
43671;DHT22;29267;50.906;7.248;2022-09-09T16:16:25;17.00;99.90
43671;DHT22;29267;50.906;7.248;2022-09-09T16:18:58;17.00;99.90
43671;DHT22;29267;50.906;7.248;2022-09-09T16:21:29;17.10;99.90
43671;DHT22;29267;50.906;7.248;2022-09-09T16:23:57;17.10;99.90
43671;DHT22;29267;50.906;7.248;2022-09-09T16:26:25;17.00;99.90
43671;DHT22;29267;50.906;7.248;2022-09-09T16:28:51;17.10;99.90
43671;DHT22;29267;50.906;7.248;2022-09-09T16:31:21;17.10;99.90
43671;DHT22;29267;50.906;7.248;2022-09-09T16:33:47;17.00;99.90
43671;DHT22;29267;50.906;7.248;2022-09-09T16:36:16;17.00;99.90
43671;DHT22;29267;50.906;7.248;2022-09-09T16:38:44;17.00;99.90
43671;DHT22;29267;50.906;7.248;2022-09-09T16:41:12;17.10;99.90
43671;DHT22;29267;50.906;7.248;2022-09-09T16:43:38;16.90;99.90
43671;DHT22;29267;50.906;7.248;2022-09-09T16:46:33;17.00;99.90
43671;DHT22;29267;50.906;7.248;2022-09-09T16:49:02;17.20;99.90
43671;DHT22;29267;50.906;7.248;2022-09-09T16:51:31;17.30;99.90
43671;DHT22;29267;50.906;7.248;2022-09-09T16:53:59;17.10;99.90
43671;DHT22;29267;50.906;7.248;2022-09-09T16:56:28;17.10;99.90
43671;DHT22;29267;50.906;7.248;2022-09-09T16:58:56;17.20;99.90
43671;DHT22;29267;50.906;7.248;2022-09-09T17:01:28;17.20;99.90
43671;DHT22;29267;50.906;7.248;2022-09-09T17:03:55;17.20;99.90
43671;DHT22;29267;50.906;7.248;2022-09-09T17:06:21;17.10;99.90
43671;DHT22;29267;50.906;7.248;2022-09-09T17:08:53;17.00;99.90
43671;DHT22;29267;50.906;7.248;2022-09-09T17:11:19;17.10;99.90
43671;DHT22;29267;50.906;7.248;2022-09-09T17:13:46;17.20;99.90
43671;DHT22;29267;50.906;7.248;2022-09-09T17:16:14;17.30;99.90
43671;DHT22;29267;50.906;7.248;2022-09-09T17:18:40;17.40;99.90
43671;DHT22;29267;50.906;7.248;2022-09-09T17:21:09;17.10;99.90
43671;DHT22;29267;50.906;7.248;2022-09-09T17:23:36;17.00;99.90
43671;DHT22;29267;50.906;7.248;2022-09-09T17:26:05;17.00;99.90
43671;DHT22;29267;50.906;7.248;2022-09-09T17:28:36;16.90;99.90
43671;DHT22;29267;50.906;7.248;2022-09-09T17:31:10;17.00;99.90
43671;DHT22;29267;50.906;7.248;2022-09-09T17:33:43;17.10;99.90
43671;DHT22;29267;50.906;7.248;2022-09-09T17:36:34;17.00;99.90
43671;DHT22;29267;50.906;7.248;2022-09-09T17:39:01;17.00;99.90
43671;DHT22;29267;50.906;7.248;2022-09-09T17:41:29;17.10;99.90
43671;DHT22;29267;50.906;7.248;2022-09-09T17:44:01;17.10;99.90
43671;DHT22;29267;50.906;7.248;2022-09-09T17:46:31;17.10;99.90
43671;DHT22;29267;50.906;7.248;2022-09-09T17:48:59;17.10;99.90
43671;DHT22;29267;50.906;7.248;2022-09-09T17:51:28;17.00;99.90
43671;DHT22;29267;50.906;7.248;2022-09-09T17:53:58;17.00;99.90
43671;DHT22;29267;50.906;7.248;2022-09-09T17:56:28;17.00;99.90
43671;DHT22;29267;50.906;7.248;2022-09-09T17:58:56;17.10;99.90
43671;DHT22;29267;50.906;7.248;2022-09-09T18:01:24;17.10;99.90
43671;DHT22;29267;50.906;7.248;2022-09-09T18:03:56;17.10;99.90
43671;DHT22;29267;50.906;7.248;2022-09-09T18:06:31;17.10;99.90
43671;DHT22;29267;50.906;7.248;2022-09-09T18:09:03;17.00;99.90
43671;DHT22;29267;50.906;7.248;2022-09-09T18:11:36;17.00;99.90
43671;DHT22;29267;50.906;7.248;2022-09-09T18:14:07;16.90;99.90
43671;DHT22;29267;50.906;7.248;2022-09-09T18:16:35;16.70;99.90
43671;DHT22;29267;50.906;7.248;2022-09-09T18:19:03;16.70;99.90